Plato — 8PRX — position and weather

sailwx.info

Track history (hours):
 
Tides and Currents Weather Stations Pressure Air Temp Water Temp Dewpoint Dewpoint Depression Visibility Wind Speed Wind Dir Waves Ship Positions

Plato

Last reported at 2016-Aug-27 09:31 UTC. Time now 2016-Aug-27 09:57 UTC.
Position N 51°57' E 001°24'.

Length 89 m; draft 3.1 m.

Type: Cargo ship. MMSI: 314189000.

Date/timePositionNaut miles runAvg speedWind from/ knotsBaromVisibWave heightAir tempDewpointWater temp
2016-Aug-27 09:31N 51°57' E 001°24'0 0.0
2016-Aug-27 08:31N 51°57' E 001°24'0 0.0
2016-Aug-27 07:25N 51°57' E 001°24'0 0.0
2016-Aug-27 04:31N 51°57' E 001°24'0 0.0
2016-Aug-27 03:22N 51°57' E 001°24'0 0.0
2016-Aug-27 02:31N 51°57' E 001°24'0 0.0
2016-Aug-27 01:28N 51°57' E 001°24'0 0.0
2016-Aug-27 00:31N 51°57' E 001°24'0 0.1
2016-Aug-26 23:31N 51°57' E 001°24'0 0.1
2016-Aug-26 22:31N 51°57' E 001°24'0 0.0
2016-Aug-26 21:31N 51°57' E 001°24'0 0.0
2016-Aug-26 20:28N 51°57' E 001°24'0 0.0
2016-Aug-26 19:31N 51°57' E 001°24'0 0.0
2016-Aug-26 18:31N 51°57' E 001°24'0 0.0
2016-Aug-26 17:31N 51°57' E 001°24'0 0.1
2016-Aug-26 16:31N 51°57' E 001°24'0 0.0
2016-Aug-26 15:31N 51°57' E 001°24'3 2.8
2016-Aug-26 14:33N 51°56' E 001°21'7 7.2
2016-Aug-26 13:33N 52°00' E 001°12'3 0.4
2016-Aug-26 07:25N 52°03' E 001°10'0 0.0
2016-Aug-26 03:19N 52°03' E 001°10'0 0.0
2016-Aug-26 01:13N 52°03' E 001°10'0 0.0
2016-Aug-25 20:28N 52°03' E 001°10'0 0.0
2016-Aug-25 19:28N 52°03' E 001°10'0 0.0
2016-Aug-25 18:31N 52°03' E 001°10'0 0.0
2016-Aug-25 17:10N 52°03' E 001°10'0 0.0
2016-Aug-25 15:31N 52°03' E 001°10'0 0.0
2016-Aug-25 14:31N 52°03' E 001°10'0 0.0
2016-Aug-25 13:07N 52°03' E 001°10'0 0.0
2016-Aug-25 12:25N 52°03' E 001°10'0 0.0
2016-Aug-25 11:31N 52°03' E 001°10'0 0.0
2016-Aug-25 10:31N 52°03' E 001°10'0 0.0
2016-Aug-25 08:19N 52°03' E 001°10'0 0.0
2016-Aug-25 07:18N 52°03' E 001°10'0 0.0
2016-Aug-25 06:24N 52°03' E 001°10'0 0.0
2016-Aug-24 21:33N 52°03' E 001°10'4 3.8
2016-Aug-24 20:33N 51°60' E 001°14'5 4.8
2016-Aug-24 19:33N 51°56' E 001°19'4 4.4
2016-Aug-24 18:33N 51°57' E 001°26'4 4.2
2016-Aug-24 17:32N 51°58' E 001°33'0 0.0
2016-Aug-24 16:32N 51°58' E 001°33'0 0.1
2016-Aug-24 15:32N 51°58' E 001°32'0 0.1
2016-Aug-24 14:32N 51°58' E 001°32'0 0.0
2016-Aug-24 13:29N 51°58' E 001°32'0 0.0
2016-Aug-24 12:32N 51°58' E 001°32'0 0.0
2016-Aug-24 11:32N 51°58' E 001°32'0 0.0
2016-Aug-24 10:32N 51°58' E 001°32'0 0.1
2016-Aug-24 09:32N 51°58' E 001°33'0 0.0
2016-Aug-24 08:32N 51°58' E 001°33'0 0.0
2016-Aug-24 07:32N 51°58' E 001°33'0 0.0
2016-Aug-24 06:32N 51°58' E 001°33'0 0.0
2016-Aug-24 04:32N 51°58' E 001°33'0 0.1
2016-Aug-24 03:32N 51°58' E 001°32'0 0.1
2016-Aug-24 02:32N 51°58' E 001°32'3 3.1
2016-Aug-24 01:33N 52°00' E 001°36'9 9.2
2016-Aug-24 00:33N 52°07' E 001°46'  
2016-Aug-19 20:22N 58°45' E 010°17'7 8.9
2016-Aug-19 19:34N 58°51' E 010°24'9 8.6
2016-Aug-19 18:33N 58°58' E 010°34'8 8.0
2016-Aug-19 17:33N 59°02' E 010°48'8 8.2
2016-Aug-19 16:34N 58°59' E 011°02'8 0.4
2016-Aug-18 20:21N 59°05' E 011°13'7 9.0
2016-Aug-18 19:34N 59°08' E 011°00'9 8.3
2016-Aug-18 18:32N 59°16' E 011°03'4 0.1
2016-Aug-17 15:33N 59°13' E 010°58'8 8.1
2016-Aug-17 14:33N 59°05' E 010°58'5 5.1
2016-Aug-17 13:33N 59°01' E 010°53'3 2.5
2016-Aug-17 12:33N 59°02' E 010°49'6 5.8
2016-Aug-17 11:33N 58°59' E 010°38'8 8.4
2016-Aug-17 10:33N 58°53' E 010°27'  
Track history (hours):
 
Tides and Currents Weather Stations Pressure Air Temp Water Temp Dewpoint Dewpoint Depression Visibility Wind Speed Wind Dir Waves Ship Positions

Plato

Last reported at 2016-Aug-27 09:31 UTC. Time now 2016-Aug-27 09:57 UTC.
Position N 51°57' E 001°24'.

Length 89 m; draft 3.1 m.

Type: Cargo ship. MMSI: 314189000.

Date/timePositionNaut miles runAvg speedWind from/ knotsBaromVisibWave heightAir tempDewpointWater temp
2016-Aug-27 09:31N 51°57' E 001°24'0 0.0
2016-Aug-27 08:31N 51°57' E 001°24'0 0.0
2016-Aug-27 07:25N 51°57' E 001°24'0 0.0
2016-Aug-27 04:31N 51°57' E 001°24'0 0.0
2016-Aug-27 03:22N 51°57' E 001°24'0 0.0
2016-Aug-27 02:31N 51°57' E 001°24'0 0.0
2016-Aug-27 01:28N 51°57' E 001°24'0 0.0
2016-Aug-27 00:31N 51°57' E 001°24'0 0.1
2016-Aug-26 23:31N 51°57' E 001°24'0 0.1
2016-Aug-26 22:31N 51°57' E 001°24'0 0.0
2016-Aug-26 21:31N 51°57' E 001°24'0 0.0
2016-Aug-26 20:28N 51°57' E 001°24'0 0.0
2016-Aug-26 19:31N 51°57' E 001°24'0 0.0
2016-Aug-26 18:31N 51°57' E 001°24'0 0.0
2016-Aug-26 17:31N 51°57' E 001°24'0 0.1
2016-Aug-26 16:31N 51°57' E 001°24'0 0.0
2016-Aug-26 15:31N 51°57' E 001°24'3 2.8
2016-Aug-26 14:33N 51°56' E 001°21'7 7.2
2016-Aug-26 13:33N 52°00' E 001°12'3 0.4
2016-Aug-26 07:25N 52°03' E 001°10'0 0.0
2016-Aug-26 03:19N 52°03' E 001°10'0 0.0
2016-Aug-26 01:13N 52°03' E 001°10'0 0.0
2016-Aug-25 20:28N 52°03' E 001°10'0 0.0
2016-Aug-25 19:28N 52°03' E 001°10'0 0.0
2016-Aug-25 18:31N 52°03' E 001°10'0 0.0
2016-Aug-25 17:10N 52°03' E 001°10'0 0.0
2016-Aug-25 15:31N 52°03' E 001°10'0 0.0
2016-Aug-25 14:31N 52°03' E 001°10'0 0.0
2016-Aug-25 13:07N 52°03' E 001°10'0 0.0
2016-Aug-25 12:25N 52°03' E 001°10'0 0.0
2016-Aug-25 11:31N 52°03' E 001°10'0 0.0
2016-Aug-25 10:31N 52°03' E 001°10'0 0.0
2016-Aug-25 08:19N 52°03' E 001°10'0 0.0
2016-Aug-25 07:18N 52°03' E 001°10'0 0.0
2016-Aug-25 06:24N 52°03' E 001°10'0 0.0
2016-Aug-24 21:33N 52°03' E 001°10'4 3.8
2016-Aug-24 20:33N 51°60' E 001°14'5 4.8
2016-Aug-24 19:33N 51°56' E 001°19'4 4.4
2016-Aug-24 18:33N 51°57' E 001°26'4 4.2
2016-Aug-24 17:32N 51°58' E 001°33'0 0.0
2016-Aug-24 16:32N 51°58' E 001°33'0 0.1
2016-Aug-24 15:32N 51°58' E 001°32'0 0.1
2016-Aug-24 14:32N 51°58' E 001°32'0 0.0
2016-Aug-24 13:29N 51°58' E 001°32'0 0.0
2016-Aug-24 12:32N 51°58' E 001°32'0 0.0
2016-Aug-24 11:32N 51°58' E 001°32'0 0.0
2016-Aug-24 10:32N 51°58' E 001°32'0 0.1
2016-Aug-24 09:32N 51°58' E 001°33'0 0.0
2016-Aug-24 08:32N 51°58' E 001°33'0 0.0
2016-Aug-24 07:32N 51°58' E 001°33'0 0.0
2016-Aug-24 06:32N 51°58' E 001°33'0 0.0
2016-Aug-24 04:32N 51°58' E 001°33'0 0.1
2016-Aug-24 03:32N 51°58' E 001°32'0 0.1
2016-Aug-24 02:32N 51°58' E 001°32'3 3.1
2016-Aug-24 01:33N 52°00' E 001°36'9 9.2
2016-Aug-24 00:33N 52°07' E 001°46'  
2016-Aug-19 20:22N 58°45' E 010°17'7 8.9
2016-Aug-19 19:34N 58°51' E 010°24'9 8.6
2016-Aug-19 18:33N 58°58' E 010°34'8 8.0
2016-Aug-19 17:33N 59°02' E 010°48'8 8.2
2016-Aug-19 16:34N 58°59' E 011°02'8 0.4
2016-Aug-18 20:21N 59°05' E 011°13'7 9.0
2016-Aug-18 19:34N 59°08' E 011°00'9 8.3
2016-Aug-18 18:32N 59°16' E 011°03'4 0.1
2016-Aug-17 15:33N 59°13' E 010°58'8 8.1
2016-Aug-17 14:33N 59°05' E 010°58'5 5.1
2016-Aug-17 13:33N 59°01' E 010°53'3 2.5
2016-Aug-17 12:33N 59°02' E 010°49'6 5.8
2016-Aug-17 11:33N 58°59' E 010°38'8 8.4
2016-Aug-17 10:33N 58°53' E 010°27'  

Dump ship's entire track history